createdAt,value
2019-04-21T00:00:37.508Z,103113.52
2019-04-21T00:03:19.326Z,103108.53
2019-04-21T00:06:03.243Z,103106.08
2019-04-21T00:08:37.974Z,103099.45
2019-04-21T00:13:39.411Z,103100.08
2019-04-21T00:16:03.163Z,103096.17
2019-04-21T00:18:50.611Z,103103.06
2019-04-21T00:21:26.641Z,103098.34
2019-04-21T00:24:23.995Z,103093.33
2019-04-21T00:27:05.217Z,103091.45
2019-04-21T00:29:52.057Z,103095.29
2019-04-21T00:32:11.452Z,103086.30
2019-04-21T00:34:28.453Z,103090.30
2019-04-21T00:37:12.082Z,103088.17
2019-04-21T00:40:01.928Z,103079.88
2019-04-21T00:42:29.261Z,103082.81
2019-04-21T00:44:58.592Z,103077.77
2019-04-21T00:47:34.462Z,103068.30
2019-04-21T00:50:18.069Z,103066.89
2019-04-21T00:52:56.246Z,103067.77
2019-04-21T00:58:06.876Z,103071.34
2019-04-21T01:00:32.483Z,103075.66
2019-04-21T01:03:10.968Z,103077.49
2019-04-21T01:05:49.755Z,103069.95
2019-04-21T01:08:17.646Z,103071.05
2019-04-21T01:10:43.578Z,103074.88
2019-04-21T01:13:27.966Z,103073.70
2019-04-21T01:16:00.803Z,103069.83
2019-04-21T01:18:32.660Z,103069.66
2019-04-21T01:20:46.425Z,103066.80
2019-04-21T01:23:19.228Z,103064.31
2019-04-21T01:26:10.151Z,103065.17
2019-04-21T01:28:39.844Z,103070.44
2019-04-21T01:31:18.101Z,103067.19
2019-04-21T01:33:56.215Z,103060.83
2019-04-21T01:36:26.024Z,103062.60
2019-04-21T01:39:07.356Z,103056.56
2019-04-21T01:41:38.947Z,103055.68
2019-04-21T01:44:07.974Z,103050.05
2019-04-21T01:46:40.876Z,103048.56
2019-04-21T01:49:09.185Z,103052.44
2019-04-21T01:52:05.626Z,103043.55
2019-04-21T01:54:48.267Z,103044.44
2019-04-21T01:57:17.371Z,103044.49
2019-04-21T01:59:50.258Z,103045.60
2019-04-21T02:02:32.181Z,103047.13
2019-04-21T02:05:13.373Z,103045.26
2019-04-21T02:07:40.711Z,103037.63
2019-04-21T02:10:22.663Z,103040.03
2019-04-21T02:12:50.945Z,103040.16
2019-04-21T02:15:26.839Z,103043.65
2019-04-21T02:17:54.137Z,103042.07
2019-04-21T02:20:22.998Z,103041.80
2019-04-21T02:23:26.405Z,103039.57
2019-04-21T02:25:38.614Z,103036.69
2019-04-21T02:28:18.054Z,103038.86
2019-04-21T02:36:26.545Z,103037.31
2019-04-21T02:41:34.651Z,103036.66
2019-04-21T02:44:08.268Z,103028.81
2019-04-21T02:46:40.006Z,103029.42
2019-04-21T02:49:13.394Z,103030.33
2019-04-21T02:51:50.182Z,103025.59
2019-04-21T02:54:40.980Z,103025.69
2019-04-21T02:57:01.283Z,103027.02
2019-04-21T02:59:39.192Z,103027.61
2019-04-21T03:02:17.137Z,103024.52
2019-04-21T03:04:53.267Z,103025.06
2019-04-21T03:07:31.917Z,103021.53
2019-04-21T03:09:49.473Z,103017.03
2019-04-21T03:15:15.957Z,103003.95
2019-04-21T03:17:43.230Z,103002.72
2019-04-21T03:31:01.862Z,103000.11
2019-04-21T03:38:24.648Z,102994.15
2019-04-21T03:40:44.355Z,102986.39
2019-04-21T03:43:22.661Z,102988.97
2019-04-21T03:45:49.139Z,102985.80
2019-04-21T03:48:44.288Z,102988.71
2019-04-21T03:51:04.839Z,102981.23
2019-04-21T03:56:14.560Z,102987.06
2019-04-21T04:01:16.531Z,102989.09
2019-04-21T04:06:49.276Z,102985.65
2019-04-21T04:09:19.556Z,102983.69
2019-04-21T04:14:23.411Z,102976.48
2019-04-21T04:17:10.665Z,102962.35
2019-04-21T04:19:33.099Z,102980.20
2019-04-21T04:22:20.959Z,102978.34
2019-04-21T04:24:44.769Z,102978.98
2019-04-21T04:27:14.617Z,102974.43
2019-04-21T04:29:39.753Z,102968.58
2019-04-21T04:32:25.270Z,102973.05
2019-04-21T04:34:57.234Z,102970.59
2019-04-21T04:37:32.887Z,102967.53
2019-04-21T04:45:26.535Z,102959.63
2019-04-21T04:50:19.735Z,102961.39
2019-04-21T04:52:56.072Z,102959.16
2019-04-21T04:58:07.601Z,102961.42
2019-04-21T05:03:15.971Z,102957.63
2019-04-21T05:09:10.963Z,102956.04
2019-04-21T05:14:07.598Z,102958.41
2019-04-21T05:16:48.399Z,102952.55
2019-04-21T05:19:14.831Z,102947.73
2019-04-21T05:21:46.645Z,102943.02
2019-04-21T05:24:12.405Z,102939.33
2019-04-21T05:26:43.424Z,102940.87
2019-04-21T05:29:13.699Z,102939.93
2019-04-21T05:32:14.838Z,102930.22
2019-04-21T05:34:52.821Z,102931.95
2019-04-21T05:37:14.369Z,102927.13
2019-04-21T05:39:48.979Z,102923.34
2019-04-21T05:42:23.230Z,102922.98
2019-04-21T05:45:17.423Z,102924.19
2019-04-21T05:47:39.850Z,102920.84
2019-04-21T05:50:13.360Z,102917.42
2019-04-21T05:52:51.959Z,102919.02
2019-04-21T05:55:40.447Z,102915.77
2019-04-21T05:58:03.913Z,102920.23
2019-04-21T06:00:59.162Z,102914.91
2019-04-21T06:03:16.512Z,102917.05
2019-04-21T06:08:29.733Z,102912.04
2019-04-21T06:13:35.146Z,102910.95
2019-04-21T06:16:23.162Z,102907.02
2019-04-21T06:21:09.825Z,102904.62
2019-04-21T06:23:45.044Z,102905.48
2019-04-21T06:28:50.436Z,102895.77
2019-04-21T06:31:57.823Z,102896.79
2019-04-21T06:34:08.177Z,102893.78
2019-04-21T06:36:42.706Z,102886.92
2019-04-21T06:41:39.905Z,102884.95
2019-04-21T06:44:16.863Z,102880.69
2019-04-21T06:46:48.884Z,102880.72
2019-04-21T06:49:27.519Z,102877.52
2019-04-21T06:52:07.560Z,102873.86
2019-04-21T06:54:36.258Z,102878.53
2019-04-21T06:57:15.164Z,102877.39
2019-04-21T06:59:38.405Z,102881.87
2019-04-21T07:02:33.349Z,102878.62
2019-04-21T07:04:51.809Z,102880.31
2019-04-21T07:07:26.166Z,102870.33
2019-04-21T07:09:55.061Z,102870.03
2019-04-21T07:12:27.551Z,102871.37
2019-04-21T07:15:06.606Z,102868.13
2019-04-21T07:17:35.729Z,102865.44
2019-04-21T07:20:15.840Z,102862.71
2019-04-21T07:22:50.813Z,102860.53
2019-04-21T07:25:32.766Z,102857.03
2019-04-21T07:27:52.426Z,102859.62
2019-04-21T07:30:31.682Z,102856.37
2019-04-21T07:33:07.769Z,102849.86
2019-04-21T07:35:31.679Z,102849.11
2019-04-21T07:38:04.351Z,102844.85
2019-04-21T07:40:36.392Z,102840.53
2019-04-21T07:43:09.324Z,102842.52
2019-04-21T07:45:40.125Z,102837.47
2019-04-21T07:48:19.260Z,102838.62
2019-04-21T07:51:12.068Z,102834.30
2019-04-21T07:53:51.035Z,102834.86
2019-04-21T07:56:06.499Z,102835.95
2019-04-21T07:58:58.219Z,102833.01
2019-04-21T08:04:03.936Z,102825.98
2019-04-21T08:06:33.915Z,102830.43
2019-04-21T08:09:07.147Z,102829.56
2019-04-21T08:11:36.782Z,102824.73
2019-04-21T08:14:19.498Z,102824.56
2019-04-21T08:16:54.010Z,102823.36
2019-04-21T08:19:25.255Z,102811.74
2019-04-21T08:22:03.838Z,102810.67
2019-04-21T08:24:30.599Z,102806.58
2019-04-21T08:27:05.049Z,102802.22
2019-04-21T08:29:42.981Z,102801.98
2019-04-21T08:34:55.165Z,102801.21
2019-04-21T08:37:21.568Z,102799.79
2019-04-21T08:40:09.855Z,102794.64
2019-04-21T08:42:26.688Z,102796.36
2019-04-21T08:45:00.222Z,102787.06
2019-04-21T08:47:33.308Z,102787.61
2019-04-21T08:50:11.761Z,102784.62
2019-04-21T08:55:30.611Z,102774.08
2019-04-21T08:58:10.988Z,102772.59
2019-04-21T09:00:38.448Z,102767.16
2019-04-21T09:03:16.225Z,102766.02
2019-04-21T09:05:52.538Z,102763.28
2019-04-21T09:08:24.840Z,102758.16
2019-04-21T09:10:52.883Z,102714.04
2019-04-21T09:13:32.736Z,102748.13
2019-04-21T09:15:59.560Z,102745.19
2019-04-21T09:18:39.531Z,102737.59
2019-04-21T09:21:23.149Z,102742.30
2019-04-21T09:23:54.295Z,102737.67
2019-04-21T09:26:25.228Z,102733.45
2019-04-21T09:28:48.058Z,102731.73
2019-04-21T09:31:12.208Z,102727.67
2019-04-21T09:33:48.791Z,102732.09
2019-04-21T09:36:21.281Z,102728.20
2019-04-21T09:39:00.057Z,102723.36
2019-04-21T09:41:27.412Z,102720.69
2019-04-21T09:43:59.734Z,102716.75
2019-04-21T09:46:35.491Z,102716.73
2019-04-21T09:49:12.066Z,102713.99
2019-04-21T09:51:40.053Z,102710.83
2019-04-21T09:54:18.979Z,102702.95
2019-04-21T09:56:53.874Z,102704.09
2019-04-21T09:59:26.182Z,102693.03
2019-04-21T10:02:05.171Z,102695.98
2019-04-21T10:04:27.064Z,102694.02
2019-04-21T10:06:59.081Z,102687.37
2019-04-21T10:09:31.109Z,102685.14
2019-04-21T10:12:03.459Z,102684.42
2019-04-21T10:14:36.510Z,102682.28
2019-04-21T10:17:22.365Z,102685.90
2019-04-21T10:19:55.112Z,102671.86
2019-04-21T10:22:28.744Z,102669.23
2019-04-21T10:25:00.907Z,102665.55
2019-04-21T10:27:32.840Z,102665.45
2019-04-21T10:30:11.971Z,102663.39
2019-04-21T10:32:45.961Z,102663.31
2019-04-21T10:35:21.169Z,102662.41
2019-04-21T10:38:03.348Z,102653.66
2019-04-21T10:40:25.988Z,102651.20
2019-04-21T10:42:58.367Z,102646.97
2019-04-21T10:45:30.836Z,102641.52
2019-04-21T10:48:03.163Z,102633.44
2019-04-21T10:50:36.946Z,102629.91
2019-04-21T10:53:14.293Z,102623.59
2019-04-21T10:56:00.449Z,102626.23
2019-04-21T10:58:22.544Z,102617.31
2019-04-21T11:01:13.849Z,102616.34
2019-04-21T11:03:55.635Z,102612.63
2019-04-21T11:06:28.806Z,102612.14
2019-04-21T11:09:01.964Z,102608.59
2019-04-21T11:11:34.784Z,102602.92
2019-04-21T11:14:06.958Z,102602.14
2019-04-21T11:16:39.235Z,102607.39
2019-04-21T11:19:11.745Z,102602.53
2019-04-21T11:21:44.917Z,102598.50
2019-04-21T11:24:18.099Z,102600.51
2019-04-21T11:26:51.879Z,102594.32
2019-04-21T11:29:26.148Z,102588.56
2019-04-21T11:31:58.804Z,102584.78
2019-04-21T11:34:31.530Z,102584.93
2019-04-21T11:37:05.968Z,102586.06
2019-04-21T11:39:48.779Z,102578.06
2019-04-21T11:42:13.678Z,102579.80
2019-04-21T11:44:47.096Z,102580.04
2019-04-21T11:47:24.637Z,102581.16
2019-04-21T11:49:57.087Z,102571.78
2019-04-21T11:52:29.460Z,102570.70
2019-04-21T11:55:02.679Z,102568.13
2019-04-21T11:57:39.648Z,102559.47
2019-04-21T12:00:09.365Z,102558.41
2019-04-21T12:02:41.613Z,102558.58
2019-04-21T12:05:15.040Z,102554.12
2019-04-21T12:07:47.239Z,102547.63
2019-04-21T12:10:19.607Z,102549.25
2019-04-21T12:12:52.984Z,102545.03
2019-04-21T12:15:27.101Z,102546.26
2019-04-21T12:17:59.631Z,102541.78
2019-04-21T12:20:31.837Z,102539.70
2019-04-21T12:23:04.659Z,102538.51
2019-04-21T12:25:38.997Z,102536.89
2019-04-21T12:28:12.220Z,102531.27
2019-04-21T12:30:45.879Z,102528.75
2019-04-21T12:33:20.225Z,102525.33
2019-04-21T12:35:53.572Z,102521.43
2019-04-21T12:38:36.477Z,102517.05
2019-04-21T12:41:00.391Z,102508.53
2019-04-21T12:43:32.828Z,102511.41
2019-04-21T12:46:05.333Z,102501.11
2019-04-21T12:48:38.031Z,102507.48
2019-04-21T12:51:12.182Z,102502.81
2019-04-21T12:53:45.583Z,102496.89
2019-04-21T12:56:17.772Z,102495.45
2019-04-21T12:58:51.313Z,102493.47
2019-04-21T13:01:23.464Z,102491.29
2019-04-21T13:03:55.735Z,102488.61
2019-04-21T13:06:27.888Z,102485.61
2019-04-21T13:09:05.268Z,102482.25
2019-04-21T13:11:33.480Z,102481.94
2019-04-21T13:14:06.109Z,102477.34
2019-04-21T13:16:39.241Z,102468.88
2019-04-21T13:19:11.593Z,102469.56
2019-04-21T13:21:45.753Z,102462.83
2019-04-21T13:24:18.033Z,102459.22
2019-04-21T13:26:55.919Z,102456.00
2019-04-21T13:29:24.522Z,102453.67
2019-04-21T13:31:56.735Z,102447.27
2019-04-21T13:34:28.672Z,102445.94
2019-04-21T13:37:01.567Z,102444.09
2019-04-21T13:40:03.406Z,102437.17
2019-04-21T13:42:21.396Z,102442.26
2019-04-21T13:44:44.629Z,102433.17
2019-04-21T13:47:16.848Z,102432.73
2019-04-21T13:49:49.537Z,102433.69
2019-04-21T13:52:22.795Z,102431.45
2019-04-21T13:54:55.906Z,102424.75
2019-04-21T13:57:28.478Z,102427.41
2019-04-21T14:00:01.370Z,102421.73
2019-04-21T14:02:34.495Z,102420.56
2019-04-21T14:05:11.800Z,102412.66
2019-04-21T14:07:43.991Z,102412.44
2019-04-21T14:10:17.893Z,102409.95
2019-04-21T14:12:50.660Z,102407.64
2019-04-21T14:15:24.178Z,102399.65
2019-04-21T14:17:58.329Z,102398.86
2019-04-21T14:20:31.317Z,102394.88
2019-04-21T14:23:15.640Z,102385.27
2019-04-21T14:25:37.620Z,102382.37
2019-04-21T14:28:10.262Z,102384.76
2019-04-21T14:30:42.365Z,102383.55
2019-04-21T14:33:14.307Z,102388.17
2019-04-21T14:35:47.114Z,102392.64
2019-04-21T14:38:20.619Z,102381.80
2019-04-21T14:40:52.631Z,102379.37
2019-04-21T14:43:25.861Z,102376.41
2019-04-21T14:46:15.219Z,102376.07
2019-04-21T14:49:01.273Z,102373.42
2019-04-21T14:51:41.129Z,102367.06
2019-04-21T14:54:26.876Z,102365.86
2019-04-21T14:56:59.266Z,102362.88
2019-04-21T14:59:35.201Z,102357.75
2019-04-21T15:02:07.768Z,102358.36
2019-04-21T15:04:39.859Z,102360.86
2019-04-21T15:07:12.955Z,102358.94
2019-04-21T15:09:46.363Z,102354.59
2019-04-21T15:12:20.070Z,102351.58
2019-04-21T15:14:53.694Z,102354.88
2019-04-21T15:17:27.470Z,102350.66
2019-04-21T15:20:04.791Z,102345.41
2019-04-21T15:22:34.482Z,102343.23
2019-04-21T15:25:08.059Z,102334.77
2019-04-21T15:27:41.159Z,102334.08
2019-04-21T15:30:14.412Z,102331.17
2019-04-21T15:32:46.575Z,102333.91
2019-04-21T15:35:19.547Z,102335.08
2019-04-21T15:37:51.851Z,102327.54
2019-04-21T15:40:36.597Z,102325.59
2019-04-21T15:42:57.506Z,102321.73
2019-04-21T15:45:30.579Z,102312.84
2019-04-21T15:48:02.669Z,102315.78
2019-04-21T15:50:35.669Z,102316.45
2019-04-21T15:53:11.966Z,102312.52
2019-04-21T15:56:02.572Z,102310.69
2019-04-21T15:58:46.431Z,102308.52
2019-04-21T16:01:30.375Z,102304.03
2019-04-21T16:04:04.304Z,102301.28
2019-04-21T16:06:37.360Z,102305.92
2019-04-21T16:09:14.959Z,102294.97
2019-04-21T16:11:46.020Z,102305.35
2019-04-21T16:14:18.662Z,102299.70
2019-04-21T16:16:51.764Z,102292.78
2019-04-21T16:19:24.967Z,102292.91
2019-04-21T16:21:57.006Z,102289.05
2019-04-21T16:24:30.774Z,102295.02
2019-04-21T16:27:06.590Z,102281.03
2019-04-21T16:29:37.370Z,102291.76
2019-04-21T16:32:09.434Z,102283.49
2019-04-21T16:34:49.184Z,102275.73
2019-04-21T16:37:15.332Z,102276.05
2019-04-21T16:39:47.474Z,102272.81
2019-04-21T16:42:20.471Z,102272.56
2019-04-21T16:44:52.798Z,102274.97
2019-04-21T16:47:26.110Z,102273.23
2019-04-21T16:49:58.242Z,102276.53
2019-04-21T16:52:38.411Z,102277.36
2019-04-21T16:55:14.774Z,102272.61
2019-04-21T16:58:03.245Z,102266.95
2019-04-21T17:00:36.457Z,102269.84
2019-04-21T17:03:01.445Z,102270.11
2019-04-21T17:05:34.268Z,102268.98
2019-04-21T17:08:06.417Z,102265.56
2019-04-21T17:10:38.385Z,102265.59
2019-04-21T17:13:11.376Z,102266.49
2019-04-21T17:16:01.364Z,102268.59
2019-04-21T17:18:31.710Z,102274.84
2019-04-21T17:20:56.178Z,102267.59
2019-04-21T17:23:25.294Z,102272.62
2019-04-21T17:25:59.217Z,102270.23
2019-04-21T17:28:31.265Z,102271.80
2019-04-21T17:31:04.682Z,102267.53
2019-04-21T17:33:37.099Z,102265.61
2019-04-21T17:36:09.248Z,102272.08
2019-04-21T17:38:41.841Z,102272.21
2019-04-21T17:41:25.940Z,102275.73
2019-04-21T17:43:47.944Z,102273.67
2019-04-21T17:46:30.292Z,102275.34
2019-04-21T17:48:55.184Z,102277.95
2019-04-21T17:51:49.386Z,102279.20
2019-04-21T17:54:27.627Z,102280.47
2019-04-21T17:57:19.981Z,102279.46
2019-04-21T17:59:57.673Z,102281.89
2019-04-21T18:02:26.359Z,102276.94
2019-04-21T18:04:57.866Z,102282.32
2019-04-21T18:07:32.990Z,102284.91
2019-04-21T18:10:04.379Z,102281.52
2019-04-21T18:12:33.613Z,102288.42
2019-04-21T18:15:16.188Z,102289.88
2019-04-21T18:17:26.786Z,102294.00
2019-04-21T18:19:59.687Z,102288.69
2019-04-21T18:22:41.737Z,102289.22
2019-04-21T18:25:28.052Z,102291.50
2019-04-21T18:27:50.597Z,102286.95
2019-04-21T18:30:36.033Z,102292.30
2019-04-21T18:33:14.169Z,102296.69
2019-04-21T18:36:00.660Z,102293.98
2019-04-21T18:39:16.404Z,102290.11
2019-04-21T18:41:36.447Z,102294.86
2019-04-21T18:44:53.760Z,102298.20
2019-04-21T18:47:23.623Z,102296.76
2019-04-21T18:49:48.144Z,102299.88
2019-04-21T18:52:32.607Z,102299.23
2019-04-21T18:55:09.584Z,102298.17
2019-04-21T18:57:39.283Z,102300.05
2019-04-21T19:00:15.277Z,102300.30
2019-04-21T19:02:47.701Z,102303.76
2019-04-21T19:05:17.629Z,102303.91
2019-04-21T19:08:13.353Z,102301.67
2019-04-21T19:10:39.658Z,102307.05
2019-04-21T19:16:08.306Z,102306.59
2019-04-21T19:20:58.010Z,102312.39
2019-04-21T19:23:39.148Z,102309.97
2019-04-21T19:26:15.074Z,102307.92
2019-04-21T19:28:47.594Z,102309.34
2019-04-21T19:31:17.105Z,102314.48
2019-04-21T19:33:41.125Z,102310.77
2019-04-21T19:36:05.459Z,102308.45
2019-04-21T19:38:48.908Z,102305.69
2019-04-21T19:41:28.135Z,102310.53
2019-04-21T19:44:03.030Z,102305.99
2019-04-21T19:46:34.309Z,102305.36
2019-04-21T19:49:16.893Z,102297.92
2019-04-21T19:51:43.257Z,102302.97
2019-04-21T19:54:09.956Z,102301.78
2019-04-21T19:56:38.415Z,102300.09
2019-04-21T19:59:12.859Z,102301.31
2019-04-21T20:01:45.131Z,102300.98
2019-04-21T20:04:16.809Z,102299.31
2019-04-21T20:07:01.856Z,102294.86
2019-04-21T20:09:40.637Z,102296.52
2019-04-21T20:12:13.155Z,102293.35
2019-04-21T20:14:56.035Z,102293.15
2019-04-21T20:17:16.535Z,102289.75
2019-04-21T20:19:38.621Z,102292.84
2019-04-21T20:22:11.381Z,102246.34
2019-04-21T20:24:50.007Z,102286.64
2019-04-21T20:27:29.597Z,102287.16
2019-04-21T20:30:07.150Z,102288.88
2019-04-21T20:32:46.388Z,102288.18
2019-04-21T20:35:25.117Z,102283.23
2019-04-21T20:37:47.868Z,102284.17
2019-04-21T20:40:21.938Z,102281.66
2019-04-21T20:43:07.172Z,102283.59
2019-04-21T20:45:40.216Z,102277.39
2019-04-21T20:47:54.661Z,102282.62
2019-04-21T20:50:40.292Z,102280.11
2019-04-21T20:53:14.953Z,102290.30
2019-04-21T20:55:48.398Z,102285.67
2019-04-21T20:58:26.442Z,102284.66
2019-04-21T21:03:35.309Z,102283.03
2019-04-21T21:06:01.067Z,102282.48
2019-04-21T21:08:40.307Z,102281.57
2019-04-21T21:11:08.302Z,102280.31
2019-04-21T21:13:49.209Z,102282.70
2019-04-21T21:16:41.218Z,102281.20
2019-04-21T21:19:13.032Z,102283.09
2019-04-21T21:21:24.302Z,102284.81
2019-04-21T21:24:03.531Z,102279.22
2019-04-21T21:26:38.152Z,102283.67
2019-04-21T21:29:03.271Z,102276.91
2019-04-21T21:31:41.730Z,102279.84
2019-04-21T21:34:20.859Z,102275.61
2019-04-21T21:36:55.616Z,102278.80
2019-04-21T21:39:24.613Z,102276.95
2019-04-21T21:41:48.532Z,102274.43
2019-04-21T21:44:21.114Z,102267.03
2019-04-21T21:47:04.261Z,102265.54
2019-04-21T21:49:36.994Z,102261.16
2019-04-21T21:52:07.002Z,102260.90
2019-04-21T21:54:31.864Z,102262.93
2019-04-21T21:57:04.840Z,102266.64
2019-04-21T21:59:38.643Z,102265.51
2019-04-21T22:02:17.129Z,102267.42
2019-04-21T22:04:54.634Z,102267.27
2019-04-21T22:07:22.550Z,102264.48
2019-04-21T22:09:52.404Z,102264.61
2019-04-21T22:12:25.800Z,102261.41
2019-04-21T22:15:02.453Z,102257.14
2019-04-21T22:17:52.795Z,102260.50
2019-04-21T22:20:30.123Z,102258.97
2019-04-21T22:22:51.727Z,102260.80
2019-04-21T22:25:22.885Z,102261.80
2019-04-21T22:27:48.882Z,102258.01
2019-04-21T22:30:28.986Z,102257.47
2019-04-21T22:33:00.732Z,102254.69
2019-04-21T22:35:37.876Z,102252.42
2019-04-21T22:38:20.760Z,102251.06
2019-04-21T22:40:50.875Z,102256.73
2019-04-21T22:43:19.713Z,102254.97
2019-04-21T22:45:43.488Z,102252.38
2019-04-21T22:48:18.203Z,102249.26
2019-04-21T22:50:49.097Z,102229.87
2019-04-21T22:53:21.726Z,102254.59
2019-04-21T22:56:02.957Z,102251.09
2019-04-21T22:58:35.684Z,102257.56
2019-04-21T23:01:06.127Z,102256.14
2019-04-21T23:03:40.070Z,102257.13
2019-04-21T23:06:19.587Z,102257.61
2019-04-21T23:08:46.147Z,102258.06
2019-04-21T23:11:19.814Z,102262.62
2019-04-21T23:14:00.444Z,102260.94
2019-04-21T23:16:30.108Z,102262.80
2019-04-21T23:19:15.895Z,102259.28
2019-04-21T23:21:55.249Z,102260.44
2019-04-21T23:24:33.106Z,102265.77
2019-04-21T23:26:54.177Z,102265.53
2019-04-21T23:29:43.870Z,102268.50
2019-04-21T23:32:02.982Z,102268.22
2019-04-21T23:34:28.346Z,102267.73
2019-04-21T23:37:04.403Z,102260.86
2019-04-21T23:39:32.797Z,102260.14
2019-04-21T23:42:04.555Z,102257.95
2019-04-21T23:44:41.810Z,102256.75
2019-04-21T23:47:13.359Z,102247.47
2019-04-21T23:49:53.164Z,102248.89
2019-04-21T23:52:18.338Z,102242.70
2019-04-21T23:54:51.661Z,102239.67
2019-04-21T23:57:31.752Z,102239.23
2019-04-21T23:59:59.620Z,102235.56
